Time;durP1;ratioP1;P1;durP2;ratioP2;P2;SDS_P1;SDS_P2;PMS_P1;PMS_P2;Temp;Humidity;BMP_temperature;BMP_pressure;BME280_temperature;BME280_humidity;BME280_pressure;Samples;Min_cycle;Max_cycle;Signal;HPM_P1;HPM_P2
2023/09/27 00:00:08;;;;;;;13.10;7.38;;;;;;;;;;5093795;28;20020;-40
2023/09/27 00:02:33;;;;;;;11.43;7.35;;;;;;;;;;5094036;28;20012;-41
2023/09/27 00:04:59;;;;;;;13.73;7.50;;;;;;;;;;5093821;28;20436;-41
2023/09/27 00:07:24;;;;;;;14.27;7.60;;;;;;;;;;5094017;28;20311;-41
2023/09/27 00:09:51;;;;;;;11.60;7.35;;;;;;;;;;5093635;28;20310;-41
2023/09/27 00:12:18;;;;;;;11.55;6.88;;;;;;;;;;5093833;28;20027;-41
2023/09/27 00:14:43;;;;;;;11.43;7.45;;;;;;;;;;5093772;28;20020;-41
2023/09/27 00:17:08;;;;;;;11.90;7.47;;;;;;;;;;5093484;28;20406;-41
2023/09/27 00:19:33;;;;;;;10.30;7.15;;;;;;;;;;5093828;28;20266;-40
2023/09/27 00:21:59;;;;;;;12.43;7.68;;;;;;;;;;5093767;28;20024;-41
2023/09/27 00:24:24;;;;;;;14.40;7.88;;;;;;;;;;5093538;28;20024;-40
2023/09/27 00:26:49;;;;;;;12.73;7.70;;;;;;;;;;5093628;28;20027;-41
2023/09/27 00:29:14;;;;;;;13.87;7.40;;;;;;;;;;5093512;28;20359;-41
2023/09/27 00:31:40;;;;;;;12.97;7.50;;;;;;;;;;5093445;28;20266;-41
2023/09/27 00:34:05;;;;;;;15.40;7.45;;;;;;;;;;5093755;28;20027;-41
2023/09/27 00:36:30;;;;;;;12.07;7.70;;;;;;;;;;5093890;28;20008;-41
2023/09/27 00:38:55;;;;;;;14.88;7.57;;;;;;;;;;5092874;28;20050;-40
2023/09/27 00:41:22;;;;;;;13.57;7.67;;;;;;;;;;5095587;28;20024;-40
2023/09/27 00:43:48;;;;;;;12.85;8.60;;;;;;;;;;5096946;28;20020;-40
2023/09/27 00:46:14;;;;;;;14.80;7.90;;;;;;;;;;5096678;28;20489;-40
2023/09/27 00:48:40;;;;;;;14.68;8.98;;;;;;;;;;5095931;28;20643;-41
2023/09/27 00:51:05;;;;;;;16.52;8.77;;;;;;;;;;5096367;28;20023;-41
2023/09/27 00:53:31;;;;;;;12.70;8.55;;;;;;;;;;5097114;28;20012;-40
2023/09/27 00:55:57;;;;;;;13.13;8.55;;;;;;;;;;5079204;28;20020;-40
2023/09/27 00:58:23;;;;;;;12.95;8.50;;;;;;;;;;5097133;28;20016;-40
2023/09/27 01:00:49;;;;;;;13.52;9.00;;;;;;;;;;5097409;28;20505;-41
2023/09/27 01:03:15;;;;;;;14.82;8.60;;;;;;;;;;5097061;28;20459;-40
2023/09/27 01:05:44;;;;;;;13.25;8.98;;;;;;;;;;5097267;28;20069;-40
2023/09/27 01:08:09;;;;;;;12.63;8.40;;;;;;;;;;5096400;28;20470;-40
2023/09/27 01:10:35;;;;;;;13.47;8.87;;;;;;;;;;5097140;28;20069;-40
2023/09/27 01:13:00;;;;;;;15.27;9.15;;;;;;;;;;5097429;28;20266;-40
2023/09/27 01:15:26;;;;;;;12.07;8.60;;;;;;;;;;5078518;28;20356;-41
2023/09/27 01:17:53;;;;;;;12.45;8.90;;;;;;;;;;5096823;28;20020;-41
2023/09/27 01:20:19;;;;;;;14.48;9.10;;;;;;;;;;5096796;28;20374;-40
2023/09/27 01:22:49;;;;;;;14.82;8.95;;;;;;;;;;5097248;28;20023;-41
2023/09/27 01:25:15;;;;;;;12.52;8.60;;;;;;;;;;5096668;28;20023;-40
2023/09/27 01:27:40;;;;;;;13.02;8.80;;;;;;;;;;5097159;28;20028;-40
2023/09/27 01:30:06;;;;;;;13.25;8.63;;;;;;;;;;5096529;28;20012;-40
2023/09/27 01:32:31;;;;;;;13.30;8.55;;;;;;;;;;5096434;28;20046;-41
2023/09/27 01:34:57;;;;;;;19.27;9.40;;;;;;;;;;5096784;28;20417;-40
2023/09/27 01:37:22;;;;;;;15.77;8.53;;;;;;;;;;5096400;28;20454;-40
2023/09/27 01:39:47;;;;;;;16.10;8.80;;;;;;;;;;5094237;28;20052;-40
2023/09/27 01:42:12;;;;;;;11.07;8.57;;;;;;;;;;5094374;28;20357;-40
2023/09/27 01:44:38;;;;;;;10.70;8.27;;;;;;;;;;5094375;28;20036;-40
2023/09/27 01:47:04;;;;;;;14.63;8.63;;;;;;;;;;5094548;28;20266;-40
2023/09/27 01:49:29;;;;;;;14.70;8.65;;;;;;;;;;5094486;28;20370;-41
2023/09/27 01:51:54;;;;;;;12.82;8.13;;;;;;;;;;5092756;28;20023;-40
2023/09/27 01:54:19;;;;;;;13.27;8.40;;;;;;;;;;5093835;28;20016;-40
2023/09/27 01:56:44;;;;;;;14.15;8.63;;;;;;;;;;5093818;28;20265;-40
2023/09/27 01:59:10;;;;;;;14.03;8.43;;;;;;;;;;5094157;28;20027;-40
2023/09/27 02:01:35;;;;;;;17.17;8.73;;;;;;;;;;5094391;28;20266;-40
2023/09/27 02:04:00;;;;;;;13.30;8.57;;;;;;;;;;5094362;28;20262;-40
2023/09/27 02:06:25;;;;;;;15.03;8.53;;;;;;;;;;5094646;28;20266;-40
2023/09/27 02:08:50;;;;;;;13.87;8.07;;;;;;;;;;5060260;28;20266;-40
2023/09/27 02:11:16;;;;;;;16.05;8.80;;;;;;;;;;5095281;28;20838;-40
2023/09/27 02:13:42;;;;;;;14.60;8.50;;;;;;;;;;5095173;28;20008;-39
2023/09/27 02:16:07;;;;;;;15.27;8.68;;;;;;;;;;5095984;28;20398;-40
2023/09/27 02:18:32;;;;;;;15.63;8.50;;;;;;;;;;5096217;28;20017;-39
2023/09/27 02:20:57;;;;;;;11.27;8.20;;;;;;;;;;5095711;28;20661;-39
2023/09/27 02:23:22;;;;;;;10.60;8.20;;;;;;;;;;5095595;28;20349;-39
2023/09/27 02:25:56;;;;;;;12.93;8.90;;;;;;;;;;5095529;28;20024;-40
2023/09/27 02:28:21;;;;;;;13.93;8.43;;;;;;;;;;5095476;28;20276;-40
2023/09/27 02:30:48;;;;;;;13.90;8.48;;;;;;;;;;5095374;28;20028;-40
2023/09/27 02:33:13;;;;;;;14.52;9.10;;;;;;;;;;5095933;28;20024;-40
2023/09/27 02:35:38;;;;;;;15.20;9.17;;;;;;;;;;5095960;28;20062;-40
2023/09/27 02:38:04;;;;;;;14.90;9.13;;;;;;;;;;5095533;28;20756;-39
2023/09/27 02:40:29;;;;;;;13.38;8.95;;;;;;;;;;5095511;28;20028;-39
2023/09/27 02:42:54;;;;;;;13.43;8.57;;;;;;;;;;5095214;28;20166;-39
2023/09/27 02:45:19;;;;;;;13.20;9.07;;;;;;;;;;5095120;28;20024;-40
2023/09/27 02:47:46;;;;;;;12.23;8.57;;;;;;;;;;5077026;28;20027;-40
2023/09/27 02:50:11;;;;;;;13.00;8.73;;;;;;;;;;5094942;28;20020;-40
2023/09/27 02:52:38;;;;;;;14.77;8.70;;;;;;;;;;5095310;28;20065;-40
2023/09/27 02:55:03;;;;;;;11.55;8.50;;;;;;;;;;5094851;28;20024;-39
2023/09/27 02:57:28;;;;;;;12.02;8.32;;;;;;;;;;5095173;28;20099;-39
2023/09/27 02:59:54;;;;;;;12.60;8.77;;;;;;;;;;5095144;28;20057;-43
2023/09/27 03:02:20;;;;;;;17.88;8.88;;;;;;;;;;5094775;28;20250;-39
2023/09/27 03:04:45;;;;;;;14.90;9.55;;;;;;;;;;5076304;28;20020;-39
2023/09/27 03:07:11;;;;;;;12.77;9.13;;;;;;;;;;5094944;28;20024;-39
2023/09/27 03:09:36;;;;;;;12.98;9.30;;;;;;;;;;5094978;28;20451;-40
2023/09/27 03:12:03;;;;;;;16.80;9.63;;;;;;;;;;5094826;28;20024;-40
2023/09/27 03:14:28;;;;;;;14.30;8.98;;;;;;;;;;5094442;28;20040;-40
2023/09/27 03:16:53;;;;;;;13.05;8.82;;;;;;;;;;5094382;28;20129;-40
2023/09/27 03:19:20;;;;;;;13.05;9.25;;;;;;;;;;5094537;28;20016;-40
2023/09/27 03:21:46;;;;;;;13.27;8.85;;;;;;;;;;5094489;28;20522;-40
2023/09/27 03:24:11;;;;;;;15.32;9.60;;;;;;;;;;5094686;28;20024;-40
2023/09/27 03:26:36;;;;;;;14.32;10.38;;;;;;;;;;5094662;28;20031;-39
2023/09/27 03:29:01;;;;;;;17.63;10.70;;;;;;;;;;5094685;28;20347;-40
2023/09/27 03:31:27;;;;;;;17.58;11.20;;;;;;;;;;5094278;28;20093;-39
2023/09/27 03:33:52;;;;;;;21.00;11.75;;;;;;;;;;5094559;28;20058;-39
2023/09/27 03:36:17;;;;;;;16.70;11.13;;;;;;;;;;5076028;28;20012;-40
2023/09/27 03:38:42;;;;;;;16.47;11.30;;;;;;;;;;5094462;28;20012;-40
2023/09/27 03:41:11;;;;;;;20.27;11.10;;;;;;;;;;5094216;28;20254;-40
2023/09/27 03:43:37;;;;;;;16.75;11.15;;;;;;;;;;5094380;28;20336;-40
2023/09/27 03:46:03;;;;;;;18.88;11.65;;;;;;;;;;5094312;28;20026;-40
2023/09/27 03:48:28;;;;;;;15.55;11.30;;;;;;;;;;5094283;28;20024;-39
2023/09/27 03:50:54;;;;;;;17.85;11.60;;;;;;;;;;5093881;28;20470;-40
2023/09/27 03:53:20;;;;;;;14.57;10.97;;;;;;;;;;5094962;28;20362;-40
2023/09/27 03:55:45;;;;;;;16.42;11.23;;;;;;;;;;5094422;28;20020;-40
2023/09/27 03:58:11;;;;;;;19.77;11.63;;;;;;;;;;5093732;28;20477;-39
2023/09/27 04:00:36;;;;;;;16.13;10.90;;;;;;;;;;5094407;28;20027;-40
2023/09/27 04:03:01;;;;;;;15.60;10.63;;;;;;;;;;5093741;28;20746;-40
2023/09/27 04:05:26;;;;;;;16.30;11.13;;;;;;;;;;5093792;28;20266;-39
2023/09/27 04:07:52;;;;;;;15.93;11.23;;;;;;;;;;5093640;28;20258;-40
2023/09/27 04:10:19;;;;;;;20.77;11.15;;;;;;;;;;5094183;28;20020;-40
2023/09/27 04:12:44;;;;;;;17.27;10.95;;;;;;;;;;5093997;28;20397;-40
2023/09/27 04:15:09;;;;;;;15.43;10.30;;;;;;;;;;5092785;28;20008;-40
2023/09/27 04:17:35;;;;;;;14.48;9.98;;;;;;;;;;5093610;28;20047;-40
2023/09/27 04:20:06;;;;;;;15.02;10.52;;;;;;;;;;5093827;28;20008;-40
2023/09/27 04:22:31;;;;;;;17.05;11.20;;;;;;;;;;5093516;28;20105;-39
2023/09/27 04:24:56;;;;;;;19.53;11.97;;;;;;;;;;5094198;28;20066;-44
2023/09/27 04:27:22;;;;;;;18.50;11.67;;;;;;;;;;5093420;28;20254;-39
2023/09/27 04:29:50;;;;;;;16.93;11.30;;;;;;;;;;5094077;28;20291;-40
2023/09/27 04:32:15;;;;;;;15.93;11.68;;;;;;;;;;5093637;28;20327;-40
2023/09/27 04:34:41;;;;;;;15.15;11.35;;;;;;;;;;5093628;28;20024;-40
2023/09/27 04:37:06;;;;;;;17.02;12.75;;;;;;;;;;5093464;28;20016;-40
2023/09/27 04:39:31;;;;;;;21.10;12.77;;;;;;;;;;5093458;28;20408;-40
2023/09/27 04:41:57;;;;;;;19.80;13.37;;;;;;;;;;5093415;28;20280;-40
2023/09/27 04:44:22;;;;;;;19.20;13.15;;;;;;;;;;5093603;28;20262;-39
2023/09/27 04:46:47;;;;;;;18.63;12.93;;;;;;;;;;5093580;28;20370;-39
2023/09/27 04:49:13;;;;;;;18.30;12.95;;;;;;;;;;5093566;28;20012;-40
2023/09/27 04:51:38;;;;;;;21.50;12.60;;;;;;;;;;5093793;28;20032;-40
2023/09/27 04:54:03;;;;;;;18.02;12.43;;;;;;;;;;5093511;28;20023;-40
2023/09/27 04:56:31;;;;;;;20.17;12.40;;;;;;;;;;5093777;28;20130;-40
2023/09/27 04:58:58;;;;;;;21.20;12.25;;;;;;;;;;5093516;28;20366;-40
2023/09/27 05:01:23;;;;;;;19.95;12.55;;;;;;;;;;5093515;28;20027;-40
2023/09/27 05:03:49;;;;;;;21.93;12.67;;;;;;;;;;5093314;28;20580;-39
2023/09/27 05:06:15;;;;;;;21.45;11.95;;;;;;;;;;5093078;28;20024;-40
2023/09/27 05:08:40;;;;;;;19.33;13.13;;;;;;;;;;5093731;28;20016;-40
2023/09/27 05:11:05;;;;;;;19.42;12.07;;;;;;;;;;5092997;28;20031;-40
2023/09/27 05:13:30;;;;;;;18.73;11.97;;;;;;;;;;5093667;28;20063;-40
2023/09/27 05:15:55;;;;;;;16.60;11.63;;;;;;;;;;5092954;28;20474;-40
2023/09/27 05:18:23;;;;;;;16.57;11.13;;;;;;;;;;5093115;28;20035;-39
2023/09/27 05:20:49;;;;;;;17.02;11.95;;;;;;;;;;5093316;28;20301;-40
2023/09/27 05:23:14;;;;;;;16.98;10.98;;;;;;;;;;5093602;28;20017;-39
2023/09/27 05:25:40;;;;;;;19.27;12.00;;;;;;;;;;5093081;28;20028;-40
2023/09/27 05:28:05;;;;;;;18.10;13.13;;;;;;;;;;5096922;28;20028;-44
2023/09/27 05:30:31;;;;;;;16.20;11.95;;;;;;;;;;5096524;28;20016;-39
2023/09/27 05:32:56;;;;;;;18.20;13.65;;;;;;;;;;5096782;28;20492;-40
2023/09/27 05:35:22;;;;;;;17.65;12.80;;;;;;;;;;5096466;28;20012;-41
2023/09/27 05:37:47;;;;;;;17.38;12.25;;;;;;;;;;5096519;28;20047;-40
2023/09/27 05:40:12;;;;;;;20.80;14.15;;;;;;;;;;5094895;28;20016;-41
2023/09/27 05:42:41;;;;;;;18.27;13.20;;;;;;;;;;5095071;28;20048;-40
2023/09/27 05:45:10;;;;;;;17.77;13.10;;;;;;;;;;5096542;28;20639;-39
2023/09/27 05:47:35;;;;;;;18.45;13.10;;;;;;;;;;5096481;28;20091;-40
2023/09/27 05:50:01;;;;;;;17.50;13.00;;;;;;;;;;5096186;28;20391;-40
2023/09/27 05:52:27;;;;;;;20.65;14.10;;;;;;;;;;5096260;28;20280;-40
2023/09/27 05:54:52;;;;;;;16.10;12.60;;;;;;;;;;5077889;28;20107;-41
2023/09/27 05:57:17;;;;;;;20.10;12.50;;;;;;;;;;5096338;28;20062;-40
2023/09/27 05:59:45;;;;;;;20.63;12.80;;;;;;;;;;5096051;28;20463;-41
2023/09/27 06:02:16;;;;;;;19.38;12.82;;;;;;;;;;5096063;28;20073;-40
2023/09/27 06:04:41;;;;;;;24.20;12.88;;;;;;;;;;5095504;28;20027;-40
2023/09/27 06:07:07;;;;;;;21.58;13.15;;;;;;;;;;5096159;28;20016;-40
2023/09/27 06:09:32;;;;;;;18.88;12.93;;;;;;;;;;5095822;28;20020;-40
2023/09/27 06:11:57;;;;;;;16.00;12.07;;;;;;;;;;5096229;28;20024;-40
2023/09/27 06:14:23;;;;;;;19.02;12.80;;;;;;;;;;5094731;28;20651;-40
2023/09/27 06:16:48;;;;;;;21.63;12.35;;;;;;;;;;5095613;28;20444;-40
2023/09/27 06:19:13;;;;;;;21.17;13.37;;;;;;;;;;5095928;28;20462;-40
2023/09/27 06:21:39;;;;;;;17.07;13.17;;;;;;;;;;5095672;28;20284;-40
2023/09/27 06:24:05;;;;;;;22.55;13.05;;;;;;;;;;5095528;28;20290;-40
2023/09/27 06:26:30;;;;;;;21.10;14.27;;;;;;;;;;5095429;28;20012;-40
2023/09/27 06:28:55;;;;;;;20.58;13.63;;;;;;;;;;5095981;28;20034;-40
2023/09/27 06:31:21;;;;;;;18.67;13.75;;;;;;;;;;5095383;28;20028;-40
2023/09/27 06:33:47;;;;;;;25.95;14.30;;;;;;;;;;5095318;28;20012;-40
2023/09/27 06:36:12;;;;;;;19.13;13.90;;;;;;;;;;5095857;28;20016;-40
2023/09/27 06:38:38;;;;;;;21.27;14.23;;;;;;;;;;5095061;28;20012;-41
2023/09/27 06:41:03;;;;;;;23.83;13.93;;;;;;;;;;5096018;28;20375;-40
2023/09/27 06:43:31;;;;;;;20.42;14.35;;;;;;;;;;5095803;28;20477;-41
2023/09/27 06:45:56;;;;;;;21.58;13.60;;;;;;;;;;5095450;28;20347;-40
2023/09/27 06:48:22;;;;;;;19.33;14.27;;;;;;;;;;5095092;28;20023;-40
2023/09/27 06:50:48;;;;;;;23.52;14.82;;;;;;;;;;5094870;28;20288;-40
2023/09/27 06:53:13;;;;;;;18.75;14.23;;;;;;;;;;5094569;28;20107;-40
2023/09/27 06:55:39;;;;;;;20.88;14.95;;;;;;;;;;5095388;28;20158;-40
2023/09/27 06:58:04;;;;;;;23.85;14.48;;;;;;;;;;5094731;28;20016;-40
2023/09/27 07:00:29;;;;;;;19.63;14.93;;;;;;;;;;5095087;28;20020;-40
2023/09/27 07:02:54;;;;;;;21.53;14.20;;;;;;;;;;5095124;28;20020;-39
2023/09/27 07:05:23;;;;;;;22.40;14.43;;;;;;;;;;5095073;28;20254;-40
2023/09/27 07:07:49;;;;;;;22.58;14.50;;;;;;;;;;5095015;28;20442;-40
2023/09/27 07:10:14;;;;;;;19.15;13.68;;;;;;;;;;5094868;28;20023;-41
2023/09/27 07:12:40;;;;;;;27.13;13.57;;;;;;;;;;5094878;28;20012;-40
2023/09/27 07:15:09;;;;;;;18.45;13.55;;;;;;;;;;5094823;28;20250;-40
2023/09/27 07:17:35;;;;;;;20.27;13.88;;;;;;;;;;5094364;28;20130;-40
2023/09/27 07:20:01;;;;;;;17.45;13.00;;;;;;;;;;5094756;28;20091;-41
2023/09/27 07:22:26;;;;;;;22.33;12.93;;;;;;;;;;5095188;28;20032;-41
2023/09/27 07:24:51;;;;;;;17.13;12.07;;;;;;;;;;5094585;28;20262;-41
2023/09/27 07:27:16;;;;;;;20.43;11.60;;;;;;;;;;5094576;28;20608;-41
2023/09/27 07:29:41;;;;;;;21.30;10.73;;;;;;;;;;5094880;28;20024;-41
2023/09/27 07:32:07;;;;;;;16.50;10.93;;;;;;;;;;5094210;28;20459;-41
2023/09/27 07:34:32;;;;;;;18.38;10.88;;;;;;;;;;5094142;28;20024;-42
2023/09/27 07:36:58;;;;;;;15.73;10.67;;;;;;;;;;5094092;28;20024;-41
2023/09/27 07:39:23;;;;;;;19.30;12.57;;;;;;;;;;5094273;28;20260;-41
2023/09/27 07:41:49;;;;;;;18.00;12.57;;;;;;;;;;5094281;28;20031;-41
2023/09/27 07:44:15;;;;;;;17.25;12.52;;;;;;;;;;5093965;28;20382;-41
2023/09/27 07:46:40;;;;;;;17.73;12.52;;;;;;;;;;5094182;28;20016;-40
2023/09/27 07:49:06;;;;;;;18.30;12.73;;;;;;;;;;5094149;28;20024;-41
2023/09/27 07:51:31;;;;;;;17.45;12.77;;;;;;;;;;5093829;28;20032;-41
2023/09/27 07:53:56;;;;;;;20.87;12.60;;;;;;;;;;5093959;28;20023;-40
2023/09/27 07:56:23;;;;;;;22.80;14.17;;;;;;;;;;5093853;28;20539;-41
2023/09/27 07:58:51;;;;;;;18.13;12.70;;;;;;;;;;5093830;28;20258;-41
2023/09/27 08:01:20;;;;;;;19.52;12.98;;;;;;;;;;5093772;28;20050;-41
2023/09/27 08:03:50;;;;;;;18.13;12.50;;;;;;;;;;5093802;28;20020;-40
2023/09/27 08:06:16;;;;;;;17.67;11.27;;;;;;;;;;5094048;28;20054;-40
2023/09/27 08:08:41;;;;;;;18.23;10.82;;;;;;;;;;5093733;28;20020;-40
2023/09/27 08:11:07;;;;;;;15.52;9.75;;;;;;;;;;5093948;28;20024;-43
2023/09/27 08:13:32;;;;;;;14.40;9.23;;;;;;;;;;5093623;28;20019;-41
2023/09/27 08:15:57;;;;;;;15.68;10.07;;;;;;;;;;5093572;28;20094;-41
2023/09/27 08:18:24;;;;;;;16.93;9.70;;;;;;;;;;5093907;28;20016;-41
2023/09/27 08:20:50;;;;;;;19.02;9.27;;;;;;;;;;5093542;28;20269;-42
2023/09/27 08:23:15;;;;;;;14.63;9.82;;;;;;;;;;5093626;28;20020;-42
2023/09/27 08:25:40;;;;;;;14.30;9.10;;;;;;;;;;5093556;28;20482;-41
2023/09/27 08:28:06;;;;;;;14.55;9.15;;;;;;;;;;5093441;28;20135;-42
2023/09/27 08:30:31;;;;;;;15.70;8.88;;;;;;;;;;5093985;28;20048;-41
2023/09/27 08:32:57;;;;;;;13.73;8.57;;;;;;;;;;5093787;28;20020;-42
2023/09/27 08:35:22;;;;;;;13.70;8.43;;;;;;;;;;5093736;28;20015;-41
2023/09/27 08:37:47;;;;;;;14.07;9.33;;;;;;;;;;5093484;28;20012;-41
2023/09/27 08:40:13;;;;;;;16.65;9.32;;;;;;;;;;5093542;28;20061;-41
2023/09/27 08:42:38;;;;;;;15.10;9.73;;;;;;;;;;5093339;28;20020;-41
2023/09/27 08:45:06;;;;;;;16.70;9.80;;;;;;;;;;5093318;28;20032;-41
2023/09/27 08:47:32;;;;;;;18.88;10.32;;;;;;;;;;5092791;28;20024;-42
2023/09/27 08:49:58;;;;;;;17.52;10.63;;;;;;;;;;5093885;28;20027;-41
2023/09/27 08:52:25;;;;;;;17.77;10.43;;;;;;;;;;5093462;28;20389;-41
2023/09/27 08:54:50;;;;;;;18.63;10.05;;;;;;;;;;5093280;28;20012;-41
2023/09/27 08:57:16;;;;;;;18.33;9.27;;;;;;;;;;5093281;28;20559;-41
2023/09/27 08:59:41;;;;;;;16.48;9.77;;;;;;;;;;5093222;28;20269;-41
2023/09/27 09:02:08;;;;;;;17.10;9.10;;;;;;;;;;5095902;28;20020;-40
2023/09/27 09:04:33;;;;;;;15.88;9.32;;;;;;;;;;5096796;28;20254;-41
2023/09/27 09:06:58;;;;;;;14.83;8.97;;;;;;;;;;5097061;28;20026;-41
2023/09/27 09:09:26;;;;;;;15.10;8.75;;;;;;;;;;5078910;28;20266;-41
2023/09/27 09:11:54;;;;;;;16.67;9.30;;;;;;;;;;5097202;28;20024;-41
2023/09/27 09:14:35;;;;;;;15.75;8.00;;;;;;;;;;5096842;28;20024;-41
2023/09/27 09:17:00;;;;;;;16.83;7.60;;;;;;;;;;5096704;28;20109;-41
2023/09/27 09:19:26;;;;;;;13.93;7.40;;;;;;;;;;5097247;28;20046;-41
2023/09/27 09:22:03;;;;;;;16.00;7.80;;;;;;;;;;5076393;28;20020;-41
2023/09/27 09:24:28;;;;;;;14.65;7.85;;;;;;;;;;5094881;28;20394;-41
2023/09/27 09:27:07;;;;;;;13.87;7.50;;;;;;;;;;5094897;28;20028;-40
2023/09/27 09:29:46;;;;;;;12.30;7.95;;;;;;;;;;5094732;28;20315;-41
2023/09/27 09:32:17;;;;;;;13.93;7.60;;;;;;;;;;5076210;28;20020;-41
2023/09/27 09:34:43;;;;;;;18.02;8.50;;;;;;;;;;5094679;28;20465;-41
2023/09/27 09:37:21;;;;;;;14.75;8.18;;;;;;;;;;5078673;28;20016;-41
2023/09/27 09:39:50;;;;;;;14.98;8.10;;;;;;;;;;5096647;28;20024;-41
2023/09/27 09:42:34;;;;;;;20.30;8.93;;;;;;;;;;5096666;28;20015;-42
2023/09/27 09:45:06;;;;;;;13.20;8.00;;;;;;;;;;5096825;28;20028;-41
2023/09/27 09:47:32;;;;;;;;;;;;;;;;;;5096914;28;20030;-41
2023/09/27 09:49:57;;;;;;;15.55;8.93;;;;;;;;;;5096179;28;19908;-41
2023/09/27 09:52:27;;;;;;;19.05;8.77;;;;;;;;;;5096096;28;20016;-41
2023/09/27 09:54:56;;;;;;;15.20;8.10;;;;;;;;;;5096327;28;20019;-41
2023/09/27 09:57:23;;;;;;;19.60;8.07;;;;;;;;;;5096316;28;20447;-41
2023/09/27 10:00:00;;;;;;;14.50;8.00;;;;;;;;;;5096070;28;20012;-41
2023/09/27 10:02:27;;;;;;;15.40;7.82;;;;;;;;;;5095912;28;20030;-41
2023/09/27 10:04:55;;;;;;;15.38;8.68;;;;;;;;;;5095805;28;20087;-41
2023/09/27 10:07:20;;;;;;;17.08;8.68;;;;;;;;;;5077695;28;20024;-41
2023/09/27 10:09:47;;;;;;;17.30;9.38;;;;;;;;;;5095877;28;20468;-41
2023/09/27 10:12:13;;;;;;;13.95;8.45;;;;;;;;;;5095378;28;20039;-41
2023/09/27 10:14:38;;;;;;;15.60;8.85;;;;;;;;;;5095098;28;20011;-39
2023/09/27 10:17:04;;;;;;;18.30;9.00;;;;;;;;;;5095589;28;20545;-41
2023/09/27 10:19:29;;;;;;;17.53;9.90;;;;;;;;;;5095698;28;20470;-41
2023/09/27 10:22:04;;;;;;;15.35;9.25;;;;;;;;;;5095825;28;20103;-41
2023/09/27 10:24:29;;;;;;;15.73;9.60;;;;;;;;;;5095580;28;20103;-41
2023/09/27 10:26:54;;;;;;;16.67;9.43;;;;;;;;;;5096057;28;20048;-41
2023/09/27 10:29:20;;;;;;;15.27;9.23;;;;;;;;;;5096042;28;20058;-41
2023/09/27 10:31:58;;;;;;;16.05;9.23;;;;;;;;;;5095420;28;20023;-41
2023/09/27 10:34:27;;;;;;;21.33;10.15;;;;;;;;;;5095545;28;20446;-41
2023/09/27 10:36:55;;;;;;;16.17;9.45;;;;;;;;;;5095591;28;20017;-41
2023/09/27 10:39:21;;;;;;;20.88;9.23;;;;;;;;;;5095202;28;20016;-41
2023/09/27 10:41:50;;;;;;;18.48;10.02;;;;;;;;;;5095421;28;20031;-41
2023/09/27 10:44:29;;;;;;;16.77;9.88;;;;;;;;;;5096235;28;20366;-41
2023/09/27 10:46:54;;;;;;;13.82;9.52;;;;;;;;;;5095326;28;20020;-41
2023/09/27 10:49:22;;;;;;;17.47;9.40;;;;;;;;;;5095260;28;20483;-41
2023/09/27 10:51:48;;;;;;;17.77;9.45;;;;;;;;;;5095157;28;20020;-41
2023/09/27 10:54:13;;;;;;;17.52;9.85;;;;;;;;;;5095230;28;20023;-41
2023/09/27 10:56:42;;;;;;;17.43;9.83;;;;;;;;;;5095596;28;20020;-41
2023/09/27 10:59:08;;;;;;;14.32;9.13;;;;;;;;;;5095358;28;20370;-41
2023/09/27 11:01:35;;;;;;;17.75;9.43;;;;;;;;;;5095852;28;20020;-40
2023/09/27 11:04:01;;;;;;;16.27;9.55;;;;;;;;;;5095057;28;20487;-40
2023/09/27 11:06:27;;;;;;;19.02;10.00;;;;;;;;;;5094690;28;20099;-41
2023/09/27 11:09:03;;;;;;;15.90;9.55;;;;;;;;;;5094868;28;20020;-41
2023/09/27 11:11:28;;;;;;;19.15;9.52;;;;;;;;;;5094873;28;20073;-40
2023/09/27 11:13:53;;;;;;;16.10;9.63;;;;;;;;;;5094579;28;20016;-41
2023/09/27 11:16:18;;;;;;;15.83;9.17;;;;;;;;;;5094418;28;20083;-41
2023/09/27 11:18:44;;;;;;;15.37;9.20;;;;;;;;;;5077045;28;20282;-41
2023/09/27 11:21:10;;;;;;;15.98;9.10;;;;;;;;;;5094785;28;20024;-43
2023/09/27 11:23:54;;;;;;;18.13;8.70;;;;;;;;;;5094208;28;20020;-41
2023/09/27 11:26:19;;;;;;;19.65;9.15;;;;;;;;;;5094183;28;20020;-41
2023/09/27 11:29:05;;;;;;;15.40;8.73;;;;;;;;;;5094633;28;20066;-42
2023/09/27 11:31:34;;;;;;;15.43;7.93;;;;;;;;;;5093637;28;20028;-41
2023/09/27 11:34:30;;;;;;;13.88;8.05;;;;;;;;;;5094236;28;20020;-41
2023/09/27 11:36:57;;;;;;;14.68;7.57;;;;;;;;;;5077467;28;20094;-41
2023/09/27 11:39:26;;;;;;;12.82;6.45;;;;;;;;;;5094763;28;20012;-41
2023/09/27 11:41:55;;;;;;;15.32;6.50;;;;;;;;;;5094148;28;20073;-41
2023/09/27 11:44:24;;;;;;;12.43;6.32;;;;;;;;;;5095133;28;20454;-41
2023/09/27 11:46:50;;;;;;;12.60;5.80;;;;;;;;;;5094358;28;20073;-41
2023/09/27 11:49:16;;;;;;;12.73;5.13;;;;;;;;;;5094237;28;20420;-41
2023/09/27 11:51:42;;;;;;;13.40;4.78;;;;;;;;;;5094214;28;20103;-42
2023/09/27 11:54:08;;;;;;;8.90;4.25;;;;;;;;;;5094090;28;20008;-42
2023/09/27 11:56:34;;;;;;;9.77;3.97;;;;;;;;;;5093829;28;20008;-41
2023/09/27 11:59:00;;;;;;;8.57;3.97;;;;;;;;;;5093972;28;20100;-40
2023/09/27 12:01:25;;;;;;;5.90;3.40;;;;;;;;;;5093795;28;20055;-41
2023/09/27 12:03:53;;;;;;;6.13;3.30;;;;;;;;;;5093772;28;20016;-42
2023/09/27 12:06:18;;;;;;;7.22;3.10;;;;;;;;;;5094187;28;20250;-41
2023/09/27 12:08:44;;;;;;;7.95;2.83;;;;;;;;;;5093544;28;20086;-42
2023/09/27 12:11:10;;;;;;;8.43;3.30;;;;;;;;;;5093460;28;20054;-41
2023/09/27 12:13:35;;;;;;;5.13;2.63;;;;;;;;;;5093857;28;20023;-42
2023/09/27 12:16:00;;;;;;;9.30;2.87;;;;;;;;;;5093307;28;20040;-41
2023/09/27 12:18:25;;;;;;;8.17;2.60;;;;;;;;;;5094331;28;20023;-41
2023/09/27 12:20:51;;;;;;;4.43;2.50;;;;;;;;;;5093669;28;20024;-41
2023/09/27 12:23:16;;;;;;;6.60;2.80;;;;;;;;;;5093703;28;20046;-41
2023/09/27 12:25:42;;;;;;;6.50;2.90;;;;;;;;;;5093286;28;20025;-42
2023/09/27 12:28:07;;;;;;;7.28;2.83;;;;;;;;;;5093610;28;20020;-41
2023/09/27 12:30:32;;;;;;;10.18;2.70;;;;;;;;;;5093103;28;20093;-41
2023/09/27 12:32:58;;;;;;;5.38;2.53;;;;;;;;;;5093580;28;20016;-42
2023/09/27 12:35:23;;;;;;;5.57;2.60;;;;;;;;;;5093216;28;20069;-42
2023/09/27 12:37:48;;;;;;;5.33;2.60;;;;;;;;;;5096026;28;20258;-41
2023/09/27 12:40:14;;;;;;;8.43;2.90;;;;;;;;;;5097497;28;20020;-41
2023/09/27 12:42:39;;;;;;;4.55;2.60;;;;;;;;;;5097217;28;20055;-42
2023/09/27 12:45:05;;;;;;;5.65;2.95;;;;;;;;;;5097549;28;20070;-41
2023/09/27 12:47:31;;;;;;;7.38;2.92;;;;;;;;;;5097619;28;20020;-41
2023/09/27 12:49:58;;;;;;;4.20;2.67;;;;;;;;;;5097055;28;20027;-41
2023/09/27 12:52:23;;;;;;;6.18;2.70;;;;;;;;;;5097106;28;20070;-42
2023/09/27 12:54:48;;;;;;;4.30;2.30;;;;;;;;;;5097243;28;20024;-41
2023/09/27 12:57:13;;;;;;;3.50;2.30;;;;;;;;;;5097466;28;20325;-41
2023/09/27 12:59:38;;;;;;;3.93;2.47;;;;;;;;;;5097685;28;20023;-41
2023/09/27 13:02:04;;;;;;;5.73;2.20;;;;;;;;;;5097648;28;20023;-41
2023/09/27 13:04:29;;;;;;;5.13;2.27;;;;;;;;;;5078914;28;20266;-41
2023/09/27 13:06:55;;;;;;;5.53;2.77;;;;;;;;;;5097238;28;20262;-41
2023/09/27 13:09:22;;;;;;;5.15;2.40;;;;;;;;;;5097181;28;20097;-42
2023/09/27 13:11:47;;;;;;;6.93;2.50;;;;;;;;;;5096680;28;20012;-40
2023/09/27 13:14:12;;;;;;;4.63;2.28;;;;;;;;;;5097015;28;20050;-42
2023/09/27 13:16:37;;;;;;;6.97;2.67;;;;;;;;;;5096748;28;20099;-41
2023/09/27 13:19:03;;;;;;;5.40;2.63;;;;;;;;;;5096730;28;20259;-41
2023/09/27 13:21:28;;;;;;;5.22;2.58;;;;;;;;;;5096918;28;20043;-41
2023/09/27 13:23:53;;;;;;;6.93;2.50;;;;;;;;;;5096677;28;20025;-41
2023/09/27 13:26:19;;;;;;;4.50;2.30;;;;;;;;;;5096577;28;20252;-42
2023/09/27 13:28:46;;;;;;;7.60;2.67;;;;;;;;;;5097137;28;20031;-41
2023/09/27 13:31:11;;;;;;;4.25;2.40;;;;;;;;;;5096558;28;20023;-42
2023/09/27 13:33:36;;;;;;;8.10;2.75;;;;;;;;;;5097120;28;20016;-41
2023/09/27 13:36:01;;;;;;;3.90;2.50;;;;;;;;;;5096440;28;20028;-41
2023/09/27 13:38:27;;;;;;;6.57;2.67;;;;;;;;;;5096391;28;20458;-42
2023/09/27 13:40:53;;;;;;;6.53;2.70;;;;;;;;;;5096584;28;20099;-41
2023/09/27 13:43:18;;;;;;;5.90;2.80;;;;;;;;;;5096423;28;20481;-41
2023/09/27 13:45:43;;;;;;;5.43;2.83;;;;;;;;;;5096247;28;20238;-41
2023/09/27 13:48:08;;;;;;;7.33;3.00;;;;;;;;;;5096022;28;20047;-41
2023/09/27 13:50:35;;;;;;;7.63;3.13;;;;;;;;;;5077939;28;20564;-41
2023/09/27 13:53:00;;;;;;;6.03;3.08;;;;;;;;;;5096346;28;20020;-42
2023/09/27 13:55:26;;;;;;;6.65;2.90;;;;;;;;;;5096391;28;20450;-41
2023/09/27 13:57:51;;;;;;;6.70;2.80;;;;;;;;;;5096472;28;20339;-41
2023/09/27 14:00:17;;;;;;;6.68;3.00;;;;;;;;;;5096134;28;20024;-41
2023/09/27 14:02:42;;;;;;;16.10;10.68;;;;;;;;;;5096083;28;20031;-41
2023/09/27 14:05:08;;;;;;;5.65;2.72;;;;;;;;;;5096315;28;20446;-41
2023/09/27 14:07:33;;;;;;;5.47;2.60;;;;;;;;;;5096026;28;20111;-41
2023/09/27 14:09:58;;;;;;;6.20;2.77;;;;;;;;;;5096099;28;20122;-41
2023/09/27 14:12:23;;;;;;;4.80;2.77;;;;;;;;;;5096208;28;20317;-41
2023/09/27 14:14:50;;;;;;;5.18;2.72;;;;;;;;;;5095832;28;20016;-41
2023/09/27 14:17:15;;;;;;;7.68;2.85;;;;;;;;;;5095454;28;20040;-41
2023/09/27 14:19:40;;;;;;;7.67;3.37;;;;;;;;;;5077558;28;20481;-41
2023/09/27 14:22:06;;;;;;;6.67;2.80;;;;;;;;;;5095855;28;20034;-41